createdAt,value
2018-12-31T00:02:09.885Z,459.00
2018-12-31T00:04:41.258Z,470.25
2018-12-31T00:07:12.505Z,475.50
2018-12-31T00:09:44.692Z,455.25
2018-12-31T00:12:16.081Z,486.00
2018-12-31T00:14:47.478Z,471.75
2018-12-31T00:17:19.143Z,530.75
2018-12-31T00:19:50.846Z,524.25
2018-12-31T00:22:22.309Z,533.25
2018-12-31T00:24:53.509Z,535.00
2018-12-31T00:27:25.258Z,539.25
2018-12-31T00:29:56.628Z,523.25
2018-12-31T00:32:28.179Z,531.75
2018-12-31T00:34:59.477Z,538.75
2018-12-31T00:37:31.000Z,528.25
2018-12-31T00:40:03.156Z,535.25
2018-12-31T00:42:34.647Z,509.25
2018-12-31T00:45:06.696Z,518.25
2018-12-31T00:47:38.196Z,504.50
2018-12-31T00:50:09.445Z,495.00
2018-12-31T00:52:40.839Z,547.00
2018-12-31T00:55:12.290Z,518.25
2018-12-31T00:57:43.531Z,522.25
2018-12-31T01:00:14.781Z,500.00
2018-12-31T01:02:46.307Z,509.25
2018-12-31T01:05:17.475Z,532.25
2018-12-31T01:07:49.281Z,528.25
2018-12-31T01:10:21.499Z,526.50
2018-12-31T01:12:52.826Z,546.00
2018-12-31T01:15:24.360Z,531.75
2018-12-31T01:17:55.878Z,480.00
2018-12-31T01:20:27.391Z,544.50
2018-12-31T01:22:59.023Z,507.75
2018-12-31T01:25:30.273Z,515.50
2018-12-31T01:28:01.913Z,514.25
2018-12-31T01:30:33.219Z,518.25
2018-12-31T01:33:04.432Z,514.50
2018-12-31T01:35:35.892Z,512.75
2018-12-31T01:38:07.184Z,485.25
2018-12-31T01:40:39.372Z,540.50
2018-12-31T01:43:10.693Z,551.00
2018-12-31T01:45:42.306Z,576.00
2018-12-31T01:48:13.529Z,583.25
2018-12-31T01:50:44.795Z,584.00
2018-12-31T01:53:16.370Z,543.75
2018-12-31T01:55:47.702Z,567.00
2018-12-31T01:58:19.176Z,528.75
2018-12-31T02:00:50.379Z,595.75
2018-12-31T02:03:21.631Z,547.00
2018-12-31T02:05:53.131Z,603.00
2018-12-31T02:08:24.669Z,596.00
2018-12-31T02:10:56.678Z,583.25
2018-12-31T02:13:28.012Z,575.40
2018-12-31T02:15:59.142Z,580.50
2018-12-31T02:18:30.592Z,585.00
2018-12-31T02:21:01.951Z,550.50
2018-12-31T02:23:33.247Z,540.75
2018-12-31T02:26:04.431Z,574.25
2018-12-31T02:28:35.883Z,613.75
2018-12-31T02:31:07.673Z,599.00
2018-12-31T02:33:39.099Z,569.25
2018-12-31T02:36:10.772Z,589.60
2018-12-31T02:38:42.121Z,565.20
2018-12-31T02:41:13.986Z,494.75
2018-12-31T02:43:45.498Z,561.00
2018-12-31T02:46:16.995Z,549.00
2018-12-31T02:48:48.175Z,562.20
2018-12-31T02:51:19.814Z,546.25
2018-12-31T02:53:51.020Z,582.60
2018-12-31T02:56:22.486Z,635.00
2018-12-31T02:58:53.690Z,623.00
2018-12-31T03:01:25.241Z,625.40
2018-12-31T03:03:56.763Z,604.40
2018-12-31T03:06:28.088Z,597.60
2018-12-31T03:08:59.290Z,589.80
2018-12-31T03:11:30.991Z,605.00
2018-12-31T03:14:02.199Z,591.80
2018-12-31T03:16:33.482Z,652.75
2018-12-31T03:19:04.719Z,606.00
2018-12-31T03:21:35.966Z,626.50
2018-12-31T03:24:07.192Z,686.75
2018-12-31T03:26:38.435Z,626.60
2018-12-31T03:29:10.092Z,619.40
2018-12-31T03:31:41.132Z,640.00
2018-12-31T03:34:12.390Z,621.00
2018-12-31T03:36:45.047Z,615.60
2018-12-31T03:39:16.574Z,561.60
2018-12-31T03:41:48.265Z,565.60
2018-12-31T03:44:19.541Z,584.60
2018-12-31T03:46:50.863Z,601.00
2018-12-31T03:49:22.107Z,602.50
2018-12-31T03:51:53.642Z,580.75
2018-12-31T03:54:25.048Z,603.80
2018-12-31T03:56:56.255Z,593.80
2018-12-31T03:59:27.697Z,584.60
2018-12-31T04:01:59.169Z,584.75
2018-12-31T04:04:30.781Z,574.00
2018-12-31T04:07:02.539Z,569.25
2018-12-31T04:09:34.999Z,563.25
2018-12-31T04:12:07.173Z,540.25
2018-12-31T04:14:38.711Z,564.50
2018-12-31T04:17:09.979Z,520.75
2018-12-31T04:19:41.344Z,531.25
2018-12-31T04:22:13.080Z,535.50
2018-12-31T04:24:44.652Z,536.50
2018-12-31T04:27:16.079Z,522.75
2018-12-31T04:29:47.759Z,512.00
2018-12-31T04:32:19.112Z,538.25
2018-12-31T04:34:50.455Z,530.00
2018-12-31T04:37:21.781Z,547.00
2018-12-31T04:39:53.323Z,543.50
2018-12-31T04:42:24.998Z,508.00
2018-12-31T04:44:56.287Z,527.00
2018-12-31T04:47:27.763Z,454.75
2018-12-31T04:49:59.328Z,528.00
2018-12-31T04:52:30.579Z,540.00
2018-12-31T04:55:02.186Z,534.00
2018-12-31T04:57:33.483Z,560.50
2018-12-31T05:00:05.285Z,510.00
2018-12-31T05:02:36.900Z,499.00
2018-12-31T05:05:08.271Z,471.75
2018-12-31T05:07:39.442Z,484.75
2018-12-31T05:10:11.259Z,424.00
2018-12-31T05:12:43.089Z,407.00
2018-12-31T05:15:14.857Z,399.25
2018-12-31T05:17:46.614Z,393.25
2018-12-31T05:20:19.039Z,356.75
2018-12-31T05:22:50.584Z,398.50
2018-12-31T05:25:21.947Z,366.00
2018-12-31T05:27:53.273Z,408.75
2018-12-31T05:30:25.224Z,366.50
2018-12-31T05:32:56.656Z,348.00
2018-12-31T05:35:28.206Z,330.00
2018-12-31T05:37:59.920Z,332.00
2018-12-31T05:40:31.567Z,294.50
2018-12-31T05:43:03.388Z,282.00
2018-12-31T05:45:35.052Z,318.25
2018-12-31T05:48:06.700Z,330.50
2018-12-31T05:50:38.270Z,334.50
2018-12-31T05:53:10.027Z,335.75
2018-12-31T05:55:41.675Z,343.75
2018-12-31T05:58:12.999Z,367.25
2018-12-31T06:00:44.655Z,327.00
2018-12-31T06:03:16.203Z,394.75
2018-12-31T06:05:47.951Z,341.25
2018-12-31T06:08:19.477Z,344.00
2018-12-31T06:10:51.009Z,288.50
2018-12-31T06:13:22.995Z,303.25
2018-12-31T06:15:55.048Z,303.75
2018-12-31T06:18:26.752Z,251.50
2018-12-31T06:20:58.973Z,234.50
2018-12-31T06:23:30.385Z,240.20
2018-12-31T06:26:02.046Z,251.60
2018-12-31T06:28:33.542Z,240.75
2018-12-31T06:31:05.152Z,278.75
2018-12-31T06:33:36.663Z,245.25
2018-12-31T06:36:08.040Z,245.50
2018-12-31T06:38:39.725Z,265.00
2018-12-31T06:41:11.212Z,266.75
2018-12-31T06:43:43.266Z,251.00
2018-12-31T06:46:14.663Z,262.80
2018-12-31T06:48:46.699Z,260.80
2018-12-31T06:51:18.323Z,259.00
2018-12-31T06:53:49.893Z,240.80
2018-12-31T06:56:21.663Z,233.50
2018-12-31T06:58:53.218Z,258.20
2018-12-31T07:01:24.443Z,241.40
2018-12-31T07:03:56.095Z,218.00
2018-12-31T07:06:27.845Z,183.80
2018-12-31T07:08:59.355Z,223.00
2018-12-31T07:11:31.223Z,201.20
2018-12-31T07:14:03.323Z,190.80
2018-12-31T07:16:34.675Z,192.20
2018-12-31T07:19:06.050Z,174.40
2018-12-31T07:21:37.337Z,192.00
2018-12-31T07:24:08.940Z,185.00
2018-12-31T07:26:40.497Z,192.60
2018-12-31T07:29:11.828Z,192.60
2018-12-31T07:31:44.355Z,194.80
2018-12-31T07:34:15.551Z,198.00
2018-12-31T07:36:46.843Z,180.80
2018-12-31T07:39:18.366Z,201.40
2018-12-31T07:41:49.744Z,196.40
2018-12-31T07:44:21.689Z,181.80
2018-12-31T07:46:53.414Z,181.40
2018-12-31T07:49:25.246Z,176.80
2018-12-31T07:51:56.605Z,170.00
2018-12-31T07:54:28.132Z,177.20
2018-12-31T07:57:00.348Z,162.40
2018-12-31T07:59:31.573Z,177.00
2018-12-31T08:02:02.917Z,144.20
2018-12-31T08:04:34.345Z,178.20
2018-12-31T08:07:05.653Z,174.60
2018-12-31T08:09:37.013Z,180.20
2018-12-31T08:12:08.477Z,160.80
2018-12-31T08:14:40.364Z,184.60
2018-12-31T08:17:11.753Z,155.00
2018-12-31T08:19:43.332Z,124.80
2018-12-31T08:22:15.077Z,164.60
2018-12-31T08:24:46.863Z,166.80
2018-12-31T08:27:18.125Z,160.80
2018-12-31T08:29:49.572Z,161.20
2018-12-31T08:32:21.703Z,168.00
2018-12-31T08:34:53.626Z,162.20
2018-12-31T08:37:25.683Z,165.80
2018-12-31T08:39:58.036Z,177.00
2018-12-31T08:42:29.679Z,162.80
2018-12-31T08:45:01.518Z,149.80
2018-12-31T08:47:33.117Z,167.60
2018-12-31T08:50:04.674Z,150.00
2018-12-31T08:52:36.105Z,148.20
2018-12-31T08:55:07.832Z,155.80
2018-12-31T08:57:39.659Z,154.80
2018-12-31T09:00:11.446Z,152.00
2018-12-31T09:02:42.665Z,152.60
2018-12-31T09:05:14.367Z,158.80
2018-12-31T09:07:46.862Z,141.60
2018-12-31T09:10:18.167Z,150.60
2018-12-31T09:12:49.114Z,145.80
2018-12-31T09:15:21.010Z,141.60
2018-12-31T09:17:52.173Z,139.60
2018-12-31T09:20:24.185Z,153.20
2018-12-31T09:22:55.372Z,148.20
2018-12-31T09:25:26.678Z,136.60
2018-12-31T09:27:58.026Z,133.40
2018-12-31T09:30:29.797Z,142.40
2018-12-31T09:33:01.281Z,126.40
2018-12-31T09:35:32.709Z,140.20
2018-12-31T09:38:04.005Z,137.40
2018-12-31T09:40:35.351Z,138.60
2018-12-31T09:43:06.488Z,125.60
2018-12-31T09:45:38.535Z,120.00
2018-12-31T09:48:09.712Z,122.40
2018-12-31T09:50:41.611Z,128.20
2018-12-31T09:53:12.868Z,131.80
2018-12-31T09:55:44.322Z,135.60
2018-12-31T09:58:15.741Z,134.00
2018-12-31T10:00:47.200Z,133.20
2018-12-31T10:03:18.328Z,137.40
2018-12-31T10:05:49.536Z,144.20
2018-12-31T10:08:20.777Z,143.40
2018-12-31T10:10:52.242Z,147.40
2018-12-31T10:13:23.442Z,156.20
2018-12-31T10:15:57.710Z,148.20
2018-12-31T10:18:29.032Z,159.40
2018-12-31T10:21:00.859Z,150.20
2018-12-31T10:23:32.093Z,162.00
2018-12-31T10:26:03.393Z,169.60
2018-12-31T10:28:34.650Z,157.60
2018-12-31T10:31:06.483Z,188.80
2018-12-31T10:33:38.335Z,202.40
2018-12-31T10:36:10.809Z,203.20
2018-12-31T10:38:42.881Z,215.40
2018-12-31T10:41:14.269Z,195.20
2018-12-31T10:43:45.413Z,218.40
2018-12-31T10:46:17.322Z,194.80
2018-12-31T10:48:48.912Z,212.80
2018-12-31T10:51:20.337Z,206.80
2018-12-31T10:53:51.936Z,190.20
2018-12-31T10:56:23.804Z,189.40
2018-12-31T10:58:55.460Z,191.40
2018-12-31T11:01:28.371Z,184.00
2018-12-31T11:03:59.451Z,181.60
2018-12-31T11:06:31.122Z,185.80
2018-12-31T11:09:02.324Z,207.40
2018-12-31T11:11:34.338Z,193.80
2018-12-31T11:14:05.398Z,190.80
2018-12-31T11:16:37.554Z,202.00
2018-12-31T11:19:08.990Z,198.60
2018-12-31T11:21:40.755Z,207.60
2018-12-31T11:24:12.816Z,194.20
2018-12-31T11:26:44.468Z,204.40
2018-12-31T11:29:15.934Z,224.60
2018-12-31T11:31:47.248Z,199.60
2018-12-31T11:34:19.178Z,171.60
2018-12-31T11:36:50.877Z,214.80
2018-12-31T11:39:22.298Z,201.00
2018-12-31T11:41:53.790Z,199.40
2018-12-31T11:44:25.083Z,189.40
2018-12-31T11:46:57.345Z,195.20
2018-12-31T11:49:28.536Z,180.60
2018-12-31T11:52:00.060Z,179.60
2018-12-31T11:54:31.519Z,193.40
2018-12-31T11:57:03.236Z,193.80
2018-12-31T11:59:34.392Z,202.20
2018-12-31T12:02:06.165Z,199.00
2018-12-31T12:04:37.367Z,188.20
2018-12-31T12:07:08.728Z,220.40
2018-12-31T12:09:39.988Z,223.80
2018-12-31T12:12:11.398Z,206.60
2018-12-31T12:14:42.953Z,232.20
2018-12-31T12:17:15.005Z,218.60
2018-12-31T12:19:46.181Z,213.20
2018-12-31T12:22:17.590Z,211.60
2018-12-31T12:24:49.554Z,225.00
2018-12-31T12:27:21.314Z,210.80
2018-12-31T12:29:52.345Z,219.60
2018-12-31T12:32:23.631Z,232.50
2018-12-31T12:34:55.861Z,228.00
2018-12-31T12:37:27.436Z,217.80
2018-12-31T12:39:58.892Z,221.50
2018-12-31T12:42:30.523Z,228.00
2018-12-31T12:45:02.019Z,226.75
2018-12-31T12:47:34.262Z,236.00
2018-12-31T12:50:05.877Z,251.00
2018-12-31T12:52:37.293Z,271.50
2018-12-31T12:55:08.535Z,282.75
2018-12-31T12:57:39.922Z,256.00
2018-12-31T13:00:11.390Z,269.25
2018-12-31T13:02:43.147Z,259.00
2018-12-31T13:05:14.311Z,264.75
2018-12-31T13:07:46.973Z,286.50
2018-12-31T13:10:18.613Z,290.50
2018-12-31T13:12:51.260Z,305.50
2018-12-31T13:15:22.434Z,298.00
2018-12-31T13:17:54.608Z,357.00
2018-12-31T13:20:25.934Z,356.50
2018-12-31T13:22:57.721Z,377.25
2018-12-31T13:25:28.972Z,397.50
2018-12-31T13:28:00.436Z,398.75
2018-12-31T13:30:33.287Z,412.50
2018-12-31T13:33:05.148Z,407.25
2018-12-31T13:35:36.671Z,425.00
2018-12-31T13:38:08.354Z,396.75
2018-12-31T13:40:39.759Z,432.50
2018-12-31T13:43:11.525Z,476.75
2018-12-31T13:45:43.003Z,469.25
2018-12-31T13:48:14.679Z,500.80
2018-12-31T13:50:46.191Z,517.25
2018-12-31T13:53:17.971Z,541.00
2018-12-31T13:55:49.223Z,570.40
2018-12-31T13:58:20.971Z,601.60
2018-12-31T14:00:52.147Z,603.60
2018-12-31T14:03:23.902Z,648.50
2018-12-31T14:05:55.049Z,648.83
2018-12-31T14:08:26.506Z,664.80
2018-12-31T14:10:57.698Z,742.80
2018-12-31T14:13:29.200Z,725.00
2018-12-31T14:16:00.928Z,785.80
2018-12-31T14:18:32.714Z,720.40
2018-12-31T14:21:03.955Z,705.40
2018-12-31T14:23:35.509Z,758.20
2018-12-31T14:26:07.119Z,701.80
2018-12-31T14:28:38.686Z,803.83
2018-12-31T14:31:10.041Z,746.83
2018-12-31T14:33:41.577Z,838.00
2018-12-31T14:36:13.044Z,880.40
2018-12-31T14:38:45.502Z,918.00
2018-12-31T14:41:17.616Z,872.60
2018-12-31T14:43:49.279Z,830.80
2018-12-31T14:46:20.401Z,816.00
2018-12-31T14:48:52.317Z,821.33
2018-12-31T14:51:24.218Z,809.17
2018-12-31T14:53:55.762Z,827.20
2018-12-31T14:56:27.140Z,852.67
2018-12-31T14:58:58.968Z,916.40
2018-12-31T15:01:31.729Z,879.80
2018-12-31T15:04:03.129Z,1102.67
2018-12-31T15:06:34.377Z,1100.50
2018-12-31T15:09:07.688Z,1063.50
2018-12-31T15:11:45.406Z,1011.50
2018-12-31T15:14:17.096Z,1039.67
2018-12-31T15:16:49.151Z,955.00
2018-12-31T15:19:20.820Z,975.20
2018-12-31T15:21:52.228Z,1001.33
2018-12-31T15:24:23.556Z,1008.50
2018-12-31T15:26:54.950Z,1076.50
2018-12-31T15:29:27.612Z,1080.33
2018-12-31T15:31:59.090Z,1164.83
2018-12-31T15:34:30.923Z,1104.50
2018-12-31T15:37:02.555Z,1104.83
2018-12-31T15:39:34.041Z,1106.33
2018-12-31T15:42:05.673Z,1094.67
2018-12-31T15:44:36.726Z,1198.33
2018-12-31T15:47:08.228Z,1198.67
2018-12-31T15:49:40.349Z,1253.17
2018-12-31T15:52:11.790Z,1289.17
2018-12-31T15:54:43.214Z,1253.50
2018-12-31T15:57:14.755Z,1231.33
2018-12-31T15:59:45.836Z,1242.00
2018-12-31T16:02:17.083Z,1199.17
2018-12-31T16:04:48.109Z,1189.33
2018-12-31T16:07:19.552Z,1184.67
2018-12-31T16:09:50.603Z,1193.83
2018-12-31T16:12:22.079Z,1240.67
2018-12-31T16:14:53.397Z,1233.83
2018-12-31T16:17:24.822Z,1172.33
2018-12-31T16:19:56.626Z,1184.00
2018-12-31T16:22:28.009Z,1198.83
2018-12-31T16:24:59.308Z,1268.17
2018-12-31T16:27:30.835Z,1283.33
2018-12-31T16:30:02.062Z,1253.83
2018-12-31T16:32:33.440Z,1277.67
2018-12-31T16:35:04.757Z,1313.50
2018-12-31T16:37:36.370Z,1269.83
2018-12-31T16:40:08.439Z,1314.17
2018-12-31T16:42:40.709Z,1337.17
2018-12-31T16:45:12.186Z,1300.33
2018-12-31T16:47:43.780Z,1247.50
2018-12-31T16:50:15.835Z,1302.00
2018-12-31T16:52:47.083Z,1250.50
2018-12-31T16:55:18.617Z,1280.00
2018-12-31T16:57:54.132Z,1212.67
2018-12-31T17:00:25.933Z,1280.50
2018-12-31T17:02:59.442Z,1240.33
2018-12-31T17:05:31.003Z,1292.67
2018-12-31T17:08:02.410Z,1241.17
2018-12-31T17:10:33.794Z,1246.33
2018-12-31T17:13:05.135Z,1274.00
2018-12-31T17:15:36.454Z,1235.33
2018-12-31T17:18:07.868Z,1248.00
2018-12-31T17:20:39.996Z,1241.83
2018-12-31T17:23:11.443Z,1279.50
2018-12-31T17:25:42.743Z,1251.50
2018-12-31T17:28:14.017Z,1322.83
2018-12-31T17:30:45.194Z,1296.33
2018-12-31T17:33:17.298Z,1300.33
2018-12-31T17:35:49.477Z,1311.33
2018-12-31T17:38:22.507Z,1352.00
2018-12-31T17:40:54.356Z,1327.33
2018-12-31T17:43:26.113Z,1297.33
2018-12-31T17:45:57.404Z,1382.33
2018-12-31T17:48:28.895Z,1321.83
2018-12-31T17:51:01.049Z,1287.83
2018-12-31T17:53:33.030Z,1278.83
2018-12-31T17:56:04.378Z,1374.17
2018-12-31T17:58:35.674Z,1361.00
2018-12-31T18:01:06.900Z,1299.00
2018-12-31T18:03:38.400Z,1338.00
2018-12-31T18:06:09.589Z,1305.50
2018-12-31T18:08:40.887Z,1274.17
2018-12-31T18:11:13.183Z,1306.17
2018-12-31T18:13:44.801Z,1304.00
2018-12-31T18:16:16.070Z,1367.50
2018-12-31T18:18:47.631Z,1397.83
2018-12-31T18:21:19.727Z,1297.67
2018-12-31T18:23:50.987Z,1346.50
2018-12-31T18:26:22.439Z,1227.17
2018-12-31T18:28:53.827Z,1283.00
2018-12-31T18:31:25.176Z,1199.40
2018-12-31T18:33:56.705Z,1241.00
2018-12-31T18:36:27.967Z,1208.20
2018-12-31T18:38:59.403Z,1199.80
2018-12-31T18:41:31.253Z,1172.60
2018-12-31T18:44:02.579Z,1145.20
2018-12-31T18:46:34.419Z,1157.20
2018-12-31T18:49:05.815Z,1161.60
2018-12-31T18:51:37.866Z,1214.60
2018-12-31T18:54:09.080Z,1171.20
2018-12-31T18:56:40.404Z,1181.20
2018-12-31T18:59:12.079Z,1165.80
2018-12-31T19:01:43.725Z,1120.80
2018-12-31T19:04:15.583Z,1065.80
2018-12-31T19:06:46.997Z,1059.67
2018-12-31T19:09:18.391Z,1093.50
2018-12-31T19:11:49.691Z,997.17
2018-12-31T19:14:21.486Z,1064.67
2018-12-31T19:16:52.867Z,1060.67
2018-12-31T19:19:25.269Z,1042.17
2018-12-31T19:21:57.288Z,1088.83
2018-12-31T19:24:29.140Z,1005.00
2018-12-31T19:27:00.805Z,1053.17
2018-12-31T19:29:32.488Z,1051.33
2018-12-31T19:32:04.253Z,1054.50
2018-12-31T19:34:35.772Z,970.60
2018-12-31T19:37:07.023Z,917.60
2018-12-31T19:39:38.288Z,986.00
2018-12-31T19:42:10.388Z,996.80
2018-12-31T19:44:41.601Z,1029.40
2018-12-31T19:47:13.049Z,955.40
2018-12-31T19:49:44.246Z,970.80
2018-12-31T19:52:16.427Z,963.20
2018-12-31T19:54:47.918Z,1004.00
2018-12-31T19:57:19.425Z,913.60
2018-12-31T19:59:50.680Z,901.80
2018-12-31T20:02:22.671Z,959.80
2018-12-31T20:04:54.185Z,920.60
2018-12-31T20:07:26.176Z,893.80
2018-12-31T20:09:57.759Z,903.00
2018-12-31T20:12:29.532Z,908.60
2018-12-31T20:15:01.110Z,885.40
2018-12-31T20:17:32.808Z,933.00
2018-12-31T20:20:04.412Z,899.80
2018-12-31T20:22:36.316Z,883.80
2018-12-31T20:25:07.725Z,897.00
2018-12-31T20:27:39.518Z,916.20
2018-12-31T20:30:10.967Z,873.60
2018-12-31T20:32:42.393Z,867.00
2018-12-31T20:35:13.668Z,859.00
2018-12-31T20:37:45.278Z,789.60
2018-12-31T20:40:16.783Z,858.80
2018-12-31T20:42:48.708Z,800.60
2018-12-31T20:45:20.251Z,808.20
2018-12-31T20:47:52.072Z,777.40
2018-12-31T20:50:23.582Z,729.40
2018-12-31T20:52:55.694Z,766.60
2018-12-31T20:55:27.073Z,728.00
2018-12-31T20:57:58.521Z,623.40
2018-12-31T21:00:29.768Z,752.60
2018-12-31T21:03:01.201Z,761.40
2018-12-31T21:05:32.454Z,752.00
2018-12-31T21:08:03.899Z,684.50
2018-12-31T21:10:35.729Z,659.25
2018-12-31T21:13:07.483Z,624.50
2018-12-31T21:15:38.845Z,634.00
2018-12-31T21:18:10.659Z,602.80
2018-12-31T21:20:42.107Z,641.60
2018-12-31T21:23:14.006Z,643.40
2018-12-31T21:25:45.292Z,593.60
2018-12-31T21:28:16.827Z,579.40
2018-12-31T21:30:47.987Z,575.60
2018-12-31T21:33:19.473Z,554.00
2018-12-31T21:35:50.938Z,535.00
2018-12-31T21:38:23.785Z,576.25
2018-12-31T21:40:55.341Z,580.25
2018-12-31T21:43:27.608Z,592.50
2018-12-31T21:45:58.945Z,542.00
2018-12-31T21:48:30.304Z,562.25
2018-12-31T21:51:01.616Z,544.50
2018-12-31T21:53:33.492Z,546.25
2018-12-31T21:56:05.324Z,512.00
2018-12-31T21:58:37.036Z,522.00
2018-12-31T22:01:08.703Z,535.25
2018-12-31T22:03:40.489Z,476.25
2018-12-31T22:06:12.141Z,512.50
2018-12-31T22:08:43.557Z,474.50
2018-12-31T22:11:14.900Z,470.00
2018-12-31T22:13:46.310Z,460.00
2018-12-31T22:16:18.215Z,543.75
2018-12-31T22:18:49.770Z,502.25
2018-12-31T22:21:21.073Z,541.25
2018-12-31T22:23:52.843Z,485.25
2018-12-31T22:26:24.178Z,545.25
2018-12-31T22:28:55.766Z,521.00
2018-12-31T22:31:26.920Z,519.50
2018-12-31T22:33:58.322Z,522.00
2018-12-31T22:36:29.761Z,482.25
2018-12-31T22:39:01.091Z,499.75
2018-12-31T22:41:33.956Z,518.75
2018-12-31T22:44:05.893Z,507.00
2018-12-31T22:46:37.489Z,457.00
2018-12-31T22:49:09.612Z,486.25
2018-12-31T22:51:41.226Z,473.00
2018-12-31T22:54:13.517Z,476.00
2018-12-31T22:56:45.075Z,470.00
2018-12-31T22:59:16.967Z,490.75
2018-12-31T23:01:48.329Z,447.75
2018-12-31T23:04:19.783Z,481.00
2018-12-31T23:06:52.324Z,460.50
2018-12-31T23:09:23.735Z,467.50
2018-12-31T23:11:55.167Z,449.25
2018-12-31T23:14:26.936Z,498.75
2018-12-31T23:17:02.719Z,466.50
2018-12-31T23:19:41.303Z,468.50
2018-12-31T23:22:07.372Z,470.00
2018-12-31T23:24:39.369Z,453.50
2018-12-31T23:27:11.678Z,462.25
2018-12-31T23:29:42.873Z,417.75
2018-12-31T23:32:14.208Z,468.50
2018-12-31T23:34:46.013Z,468.00
2018-12-31T23:37:17.479Z,472.25
2018-12-31T23:39:48.973Z,438.25
2018-12-31T23:42:20.639Z,433.25
2018-12-31T23:44:53.361Z,401.25
2018-12-31T23:47:24.625Z,425.25
2018-12-31T23:49:55.974Z,417.75
2018-12-31T23:52:27.646Z,451.00
2018-12-31T23:54:59.865Z,419.75
2018-12-31T23:57:32.509Z,450.00
